sensor_id;sensor_type;location;lat;lon;timestamp;temperature;humidity
72905;DHT22;61048;52.162;4.516;2023-04-09T00:02:22;16.10;53.80
72905;DHT22;61048;52.162;4.516;2023-04-09T00:04:49;16.10;53.70
72905;DHT22;61048;52.162;4.516;2023-04-09T00:07:16;16.10;53.80
72905;DHT22;61048;52.162;4.516;2023-04-09T00:09:43;16.10;53.90
72905;DHT22;61048;52.162;4.516;2023-04-09T00:12:11;16.10;53.90
72905;DHT22;61048;52.162;4.516;2023-04-09T00:14:38;16.10;53.90
72905;DHT22;61048;52.162;4.516;2023-04-09T00:17:05;16.00;53.90
72905;DHT22;61048;52.162;4.516;2023-04-09T00:19:31;16.10;54.10
72905;DHT22;61048;52.162;4.516;2023-04-09T00:21:58;16.10;54.20
72905;DHT22;61048;52.162;4.516;2023-04-09T00:24:25;16.10;54.10
72905;DHT22;61048;52.162;4.516;2023-04-09T00:26:52;16.10;54.20
72905;DHT22;61048;52.162;4.516;2023-04-09T00:29:20;16.10;54.20
72905;DHT22;61048;52.162;4.516;2023-04-09T00:31:47;16.10;54.10
72905;DHT22;61048;52.162;4.516;2023-04-09T00:34:14;16.10;54.10
72905;DHT22;61048;52.162;4.516;2023-04-09T00:36:41;16.10;54.30
72905;DHT22;61048;52.162;4.516;2023-04-09T00:39:08;16.10;54.20
72905;DHT22;61048;52.162;4.516;2023-04-09T00:41:35;16.10;54.20
72905;DHT22;61048;52.162;4.516;2023-04-09T00:44:02;16.10;54.30
72905;DHT22;61048;52.162;4.516;2023-04-09T00:46:30;16.10;54.20
72905;DHT22;61048;52.162;4.516;2023-04-09T00:48:58;16.10;54.30
72905;DHT22;61048;52.162;4.516;2023-04-09T00:51:25;16.10;54.30
72905;DHT22;61048;52.162;4.516;2023-04-09T00:53:53;16.10;54.30
72905;DHT22;61048;52.162;4.516;2023-04-09T00:56:21;16.10;54.40
72905;DHT22;61048;52.162;4.516;2023-04-09T00:58:49;16.10;54.30
72905;DHT22;61048;52.162;4.516;2023-04-09T01:01:15;16.10;54.40
72905;DHT22;61048;52.162;4.516;2023-04-09T01:03:44;16.10;54.40
72905;DHT22;61048;52.162;4.516;2023-04-09T01:06:16;16.10;54.30
72905;DHT22;61048;52.162;4.516;2023-04-09T01:08:50;16.10;54.40
72905;DHT22;61048;52.162;4.516;2023-04-09T01:11:28;16.10;54.50
72905;DHT22;61048;52.162;4.516;2023-04-09T01:14:05;16.10;54.50
72905;DHT22;61048;52.162;4.516;2023-04-09T01:16:36;16.10;54.50
72905;DHT22;61048;52.162;4.516;2023-04-09T01:19:09;16.10;54.50
72905;DHT22;61048;52.162;4.516;2023-04-09T01:21:42;16.10;54.50
72905;DHT22;61048;52.162;4.516;2023-04-09T01:24:18;16.10;54.60
72905;DHT22;61048;52.162;4.516;2023-04-09T01:26:55;16.00;54.50
72905;DHT22;61048;52.162;4.516;2023-04-09T01:29:26;16.00;54.60
72905;DHT22;61048;52.162;4.516;2023-04-09T01:31:56;16.00;54.50
72905;DHT22;61048;52.162;4.516;2023-04-09T01:34:25;16.00;54.50
72905;DHT22;61048;52.162;4.516;2023-04-09T01:36:55;16.00;54.60
72905;DHT22;61048;52.162;4.516;2023-04-09T01:39:23;16.00;54.60
72905;DHT22;61048;52.162;4.516;2023-04-09T01:41:50;16.00;54.70
72905;DHT22;61048;52.162;4.516;2023-04-09T01:44:17;16.00;54.60
72905;DHT22;61048;52.162;4.516;2023-04-09T01:46:47;16.00;54.70
72905;DHT22;61048;52.162;4.516;2023-04-09T01:49:15;16.00;54.70
72905;DHT22;61048;52.162;4.516;2023-04-09T01:51:42;16.00;54.60
72905;DHT22;61048;52.162;4.516;2023-04-09T01:54:09;16.00;54.70
72905;DHT22;61048;52.162;4.516;2023-04-09T01:56:40;16.00;54.70
72905;DHT22;61048;52.162;4.516;2023-04-09T01:59:07;16.00;54.70
72905;DHT22;61048;52.162;4.516;2023-04-09T02:01:37;16.00;54.80
72905;DHT22;61048;52.162;4.516;2023-04-09T02:04:09;15.90;54.80
72905;DHT22;61048;52.162;4.516;2023-04-09T02:06:45;16.00;54.80
72905;DHT22;61048;52.162;4.516;2023-04-09T02:09:15;16.00;54.80
72905;DHT22;61048;52.162;4.516;2023-04-09T02:11:46;16.00;54.80
72905;DHT22;61048;52.162;4.516;2023-04-09T02:14:15;15.90;54.80
72905;DHT22;61048;52.162;4.516;2023-04-09T02:16:42;15.90;54.80
72905;DHT22;61048;52.162;4.516;2023-04-09T02:19:10;15.90;54.90
72905;DHT22;61048;52.162;4.516;2023-04-09T02:21:37;15.90;54.80
72905;DHT22;61048;52.162;4.516;2023-04-09T02:24:04;15.90;54.90
72905;DHT22;61048;52.162;4.516;2023-04-09T02:26:31;15.90;54.80
72905;DHT22;61048;52.162;4.516;2023-04-09T02:28:58;15.90;54.90
72905;DHT22;61048;52.162;4.516;2023-04-09T02:31:24;15.90;54.90
72905;DHT22;61048;52.162;4.516;2023-04-09T02:33:51;15.90;55.00
72905;DHT22;61048;52.162;4.516;2023-04-09T02:36:20;15.90;54.90
72905;DHT22;61048;52.162;4.516;2023-04-09T02:38:47;15.90;55.10
72905;DHT22;61048;52.162;4.516;2023-04-09T02:41:14;15.90;55.00
72905;DHT22;61048;52.162;4.516;2023-04-09T02:43:41;15.90;55.00
72905;DHT22;61048;52.162;4.516;2023-04-09T02:46:07;15.90;55.00
72905;DHT22;61048;52.162;4.516;2023-04-09T02:48:34;15.90;55.10
72905;DHT22;61048;52.162;4.516;2023-04-09T02:51:03;15.90;55.00
72905;DHT22;61048;52.162;4.516;2023-04-09T02:53:32;15.90;55.10
72905;DHT22;61048;52.162;4.516;2023-04-09T02:55:58;15.90;55.10
72905;DHT22;61048;52.162;4.516;2023-04-09T02:58:25;15.90;55.10
72905;DHT22;61048;52.162;4.516;2023-04-09T03:00:52;15.90;55.10
72905;DHT22;61048;52.162;4.516;2023-04-09T03:03:19;15.90;55.20
72905;DHT22;61048;52.162;4.516;2023-04-09T03:05:46;15.90;55.20
72905;DHT22;61048;52.162;4.516;2023-04-09T03:08:12;15.90;55.10
72905;DHT22;61048;52.162;4.516;2023-04-09T03:10:41;15.90;55.10
72905;DHT22;61048;52.162;4.516;2023-04-09T03:13:07;15.90;55.20
72905;DHT22;61048;52.162;4.516;2023-04-09T03:15:34;15.80;55.20
72905;DHT22;61048;52.162;4.516;2023-04-09T03:18:01;15.80;55.30
72905;DHT22;61048;52.162;4.516;2023-04-09T03:20:28;15.80;55.40
72905;DHT22;61048;52.162;4.516;2023-04-09T03:22:55;15.80;55.30
72905;DHT22;61048;52.162;4.516;2023-04-09T03:25:22;15.90;55.40
72905;DHT22;61048;52.162;4.516;2023-04-09T03:27:50;15.80;55.30
72905;DHT22;61048;52.162;4.516;2023-04-09T03:30:17;15.80;55.40
72905;DHT22;61048;52.162;4.516;2023-04-09T03:32:43;15.80;55.50
72905;DHT22;61048;52.162;4.516;2023-04-09T03:35:10;15.90;55.40
72905;DHT22;61048;52.162;4.516;2023-04-09T03:37:37;15.80;55.50
72905;DHT22;61048;52.162;4.516;2023-04-09T03:40:05;15.80;55.30
72905;DHT22;61048;52.162;4.516;2023-04-09T03:42:32;15.80;55.50
72905;DHT22;61048;52.162;4.516;2023-04-09T03:45:00;15.80;55.50
72905;DHT22;61048;52.162;4.516;2023-04-09T03:47:28;15.80;55.60
72905;DHT22;61048;52.162;4.516;2023-04-09T03:49:54;15.80;55.50
72905;DHT22;61048;52.162;4.516;2023-04-09T03:52:21;15.80;55.60
72905;DHT22;61048;52.162;4.516;2023-04-09T03:54:48;15.80;55.40
72905;DHT22;61048;52.162;4.516;2023-04-09T03:57:15;15.80;55.60
72905;DHT22;61048;52.162;4.516;2023-04-09T03:59:42;15.80;55.60
72905;DHT22;61048;52.162;4.516;2023-04-09T04:02:11;15.80;55.70
72905;DHT22;61048;52.162;4.516;2023-04-09T04:04:37;15.80;55.80
72905;DHT22;61048;52.162;4.516;2023-04-09T04:07:04;15.80;55.70
72905;DHT22;61048;52.162;4.516;2023-04-09T04:09:32;15.80;55.70
72905;DHT22;61048;52.162;4.516;2023-04-09T04:12:00;15.80;55.70
72905;DHT22;61048;52.162;4.516;2023-04-09T04:14:27;15.80;55.80
72905;DHT22;61048;52.162;4.516;2023-04-09T04:16:54;15.80;55.60
72905;DHT22;61048;52.162;4.516;2023-04-09T04:19:23;15.80;55.80
72905;DHT22;61048;52.162;4.516;2023-04-09T04:21:49;15.80;55.80
72905;DHT22;61048;52.162;4.516;2023-04-09T04:24:16;15.80;55.70
72905;DHT22;61048;52.162;4.516;2023-04-09T04:26:43;15.80;55.80
72905;DHT22;61048;52.162;4.516;2023-04-09T04:29:10;15.80;55.90
72905;DHT22;61048;52.162;4.516;2023-04-09T04:31:37;15.80;55.80
72905;DHT22;61048;52.162;4.516;2023-04-09T04:34:03;15.80;55.80
72905;DHT22;61048;52.162;4.516;2023-04-09T04:36:32;15.80;55.80
72905;DHT22;61048;52.162;4.516;2023-04-09T04:38:58;15.80;55.80
72905;DHT22;61048;52.162;4.516;2023-04-09T04:41:25;15.80;55.80
72905;DHT22;61048;52.162;4.516;2023-04-09T04:43:52;15.80;55.90
72905;DHT22;61048;52.162;4.516;2023-04-09T04:46:19;15.80;56.00
72905;DHT22;61048;52.162;4.516;2023-04-09T04:48:46;15.80;55.90
72905;DHT22;61048;52.162;4.516;2023-04-09T04:51:13;15.80;55.90
72905;DHT22;61048;52.162;4.516;2023-04-09T04:53:41;15.80;56.00
72905;DHT22;61048;52.162;4.516;2023-04-09T04:56:11;15.80;55.90
72905;DHT22;61048;52.162;4.516;2023-04-09T04:58:38;15.80;55.90
72905;DHT22;61048;52.162;4.516;2023-04-09T05:01:05;15.80;55.90
72905;DHT22;61048;52.162;4.516;2023-04-09T05:03:32;15.80;56.00
72905;DHT22;61048;52.162;4.516;2023-04-09T05:05:59;15.80;56.10
72905;DHT22;61048;52.162;4.516;2023-04-09T05:08:26;15.80;56.10
72905;DHT22;61048;52.162;4.516;2023-04-09T05:10:54;15.80;56.10
72905;DHT22;61048;52.162;4.516;2023-04-09T05:13:21;15.80;56.10
72905;DHT22;61048;52.162;4.516;2023-04-09T05:15:48;15.80;56.00
72905;DHT22;61048;52.162;4.516;2023-04-09T05:18:15;15.80;56.10
72905;DHT22;61048;52.162;4.516;2023-04-09T05:20:42;15.80;56.30
72905;DHT22;61048;52.162;4.516;2023-04-09T05:23:08;15.80;56.40
72905;DHT22;61048;52.162;4.516;2023-04-09T05:25:37;15.80;56.10
72905;DHT22;61048;52.162;4.516;2023-04-09T05:28:05;15.80;56.30
72905;DHT22;61048;52.162;4.516;2023-04-09T05:30:32;15.80;56.20
72905;DHT22;61048;52.162;4.516;2023-04-09T05:32:58;15.80;56.30
72905;DHT22;61048;52.162;4.516;2023-04-09T05:35:25;15.80;56.40
72905;DHT22;61048;52.162;4.516;2023-04-09T05:37:52;15.80;56.40
72905;DHT22;61048;52.162;4.516;2023-04-09T05:40:19;15.80;56.40
72905;DHT22;61048;52.162;4.516;2023-04-09T05:42:46;15.80;56.60
72905;DHT22;61048;52.162;4.516;2023-04-09T05:45:14;15.80;56.50
72905;DHT22;61048;52.162;4.516;2023-04-09T05:47:41;15.80;56.50
72905;DHT22;61048;52.162;4.516;2023-04-09T05:50:09;15.90;56.50
72905;DHT22;61048;52.162;4.516;2023-04-09T05:52:36;15.90;56.50
72905;DHT22;61048;52.162;4.516;2023-04-09T05:55:03;15.90;56.60
72905;DHT22;61048;52.162;4.516;2023-04-09T05:57:31;15.90;56.40
72905;DHT22;61048;52.162;4.516;2023-04-09T05:59:58;15.90;56.50
72905;DHT22;61048;52.162;4.516;2023-04-09T06:02:27;15.90;56.50
72905;DHT22;61048;52.162;4.516;2023-04-09T06:04:54;15.90;56.60
72905;DHT22;61048;52.162;4.516;2023-04-09T06:07:21;15.90;56.60
72905;DHT22;61048;52.162;4.516;2023-04-09T06:09:47;15.90;56.60
72905;DHT22;61048;52.162;4.516;2023-04-09T06:12:14;15.90;56.50
72905;DHT22;61048;52.162;4.516;2023-04-09T06:14:42;15.90;56.50
72905;DHT22;61048;52.162;4.516;2023-04-09T06:17:08;15.90;56.60
72905;DHT22;61048;52.162;4.516;2023-04-09T06:19:37;15.90;56.60
72905;DHT22;61048;52.162;4.516;2023-04-09T06:22:03;15.90;56.50
72905;DHT22;61048;52.162;4.516;2023-04-09T06:24:31;15.90;56.60
72905;DHT22;61048;52.162;4.516;2023-04-09T06:26:58;16.00;56.50
72905;DHT22;61048;52.162;4.516;2023-04-09T06:29:25;15.90;56.60
72905;DHT22;61048;52.162;4.516;2023-04-09T06:31:52;15.90;56.50
72905;DHT22;61048;52.162;4.516;2023-04-09T06:34:19;16.00;56.60
72905;DHT22;61048;52.162;4.516;2023-04-09T06:36:47;16.00;56.50
72905;DHT22;61048;52.162;4.516;2023-04-09T06:39:14;16.00;56.50
72905;DHT22;61048;52.162;4.516;2023-04-09T06:41:41;16.00;56.60
72905;DHT22;61048;52.162;4.516;2023-04-09T06:44:08;16.00;56.60
72905;DHT22;61048;52.162;4.516;2023-04-09T06:46:35;16.00;56.50
72905;DHT22;61048;52.162;4.516;2023-04-09T06:49:02;16.00;56.50
72905;DHT22;61048;52.162;4.516;2023-04-09T06:51:28;16.00;56.50
72905;DHT22;61048;52.162;4.516;2023-04-09T06:53:57;16.00;56.70
72905;DHT22;61048;52.162;4.516;2023-04-09T06:56:24;16.10;56.70
72905;DHT22;61048;52.162;4.516;2023-04-09T06:58:51;16.10;56.70
72905;DHT22;61048;52.162;4.516;2023-04-09T07:01:18;16.10;56.70
72905;DHT22;61048;52.162;4.516;2023-04-09T07:03:45;16.20;57.00
72905;DHT22;61048;52.162;4.516;2023-04-09T07:06:12;16.20;56.80
72905;DHT22;61048;52.162;4.516;2023-04-09T07:08:39;16.20;57.00
72905;DHT22;61048;52.162;4.516;2023-04-09T07:11:07;16.20;57.00
72905;DHT22;61048;52.162;4.516;2023-04-09T07:13:34;16.20;57.10
72905;DHT22;61048;52.162;4.516;2023-04-09T07:16:01;16.30;57.50
72905;DHT22;61048;52.162;4.516;2023-04-09T07:18:29;16.30;57.50
72905;DHT22;61048;52.162;4.516;2023-04-09T07:20:56;16.30;57.00
72905;DHT22;61048;52.162;4.516;2023-04-09T07:23:22;16.20;56.80
72905;DHT22;61048;52.162;4.516;2023-04-09T07:25:49;16.20;56.80
72905;DHT22;61048;52.162;4.516;2023-04-09T07:28:18;16.20;56.60
72905;DHT22;61048;52.162;4.516;2023-04-09T07:35:39;16.40;56.90
72905;DHT22;61048;52.162;4.516;2023-04-09T07:38:06;16.20;57.50
72905;DHT22;61048;52.162;4.516;2023-04-09T07:40:33;16.20;59.20
72905;DHT22;61048;52.162;4.516;2023-04-09T07:43:01;16.20;59.80
72905;DHT22;61048;52.162;4.516;2023-04-09T07:45:29;16.30;59.30
72905;DHT22;61048;52.162;4.516;2023-04-09T07:47:56;16.30;58.70
72905;DHT22;61048;52.162;4.516;2023-04-09T07:50:23;16.30;58.70
72905;DHT22;61048;52.162;4.516;2023-04-09T07:52:49;16.30;58.50
72905;DHT22;61048;52.162;4.516;2023-04-09T07:55:16;16.30;58.10
72905;DHT22;61048;52.162;4.516;2023-04-09T07:57:44;16.30;58.10
72905;DHT22;61048;52.162;4.516;2023-04-09T08:00:13;16.30;57.90
72905;DHT22;61048;52.162;4.516;2023-04-09T08:02:42;16.20;57.60
72905;DHT22;61048;52.162;4.516;2023-04-09T08:05:09;16.20;57.70
72905;DHT22;61048;52.162;4.516;2023-04-09T08:07:36;16.20;57.50
72905;DHT22;61048;52.162;4.516;2023-04-09T08:10:03;16.20;57.40
72905;DHT22;61048;52.162;4.516;2023-04-09T08:12:30;16.20;57.60
72905;DHT22;61048;52.162;4.516;2023-04-09T08:14:57;16.20;57.50
72905;DHT22;61048;52.162;4.516;2023-04-09T08:17:24;16.20;57.40
72905;DHT22;61048;52.162;4.516;2023-04-09T08:19:53;16.20;57.30
72905;DHT22;61048;52.162;4.516;2023-04-09T08:22:20;16.20;57.20
72905;DHT22;61048;52.162;4.516;2023-04-09T08:24:50;16.20;57.10
72905;DHT22;61048;52.162;4.516;2023-04-09T08:27:18;16.20;56.90
72905;DHT22;61048;52.162;4.516;2023-04-09T08:29:46;16.20;57.10
72905;DHT22;61048;52.162;4.516;2023-04-09T08:32:13;16.20;57.00
72905;DHT22;61048;52.162;4.516;2023-04-09T08:34:40;16.20;57.00
72905;DHT22;61048;52.162;4.516;2023-04-09T08:37:08;16.20;56.90
72905;DHT22;61048;52.162;4.516;2023-04-09T08:39:35;16.20;56.90
72905;DHT22;61048;52.162;4.516;2023-04-09T08:42:05;16.20;56.70
72905;DHT22;61048;52.162;4.516;2023-04-09T08:44:33;16.20;56.80
72905;DHT22;61048;52.162;4.516;2023-04-09T08:47:00;16.20;56.80
72905;DHT22;61048;52.162;4.516;2023-04-09T08:49:27;16.20;56.70
72905;DHT22;61048;52.162;4.516;2023-04-09T08:51:54;16.20;56.70
72905;DHT22;61048;52.162;4.516;2023-04-09T08:54:22;16.20;56.70
72905;DHT22;61048;52.162;4.516;2023-04-09T08:56:51;16.20;56.70
72905;DHT22;61048;52.162;4.516;2023-04-09T08:59:18;16.20;56.60
72905;DHT22;61048;52.162;4.516;2023-04-09T09:01:45;16.20;56.60
72905;DHT22;61048;52.162;4.516;2023-04-09T09:04:17;16.20;56.60
72905;DHT22;61048;52.162;4.516;2023-04-09T09:06:43;16.20;56.60
72905;DHT22;61048;52.162;4.516;2023-04-09T09:09:12;16.20;56.50
72905;DHT22;61048;52.162;4.516;2023-04-09T09:11:42;16.20;56.50
72905;DHT22;61048;52.162;4.516;2023-04-09T09:14:10;16.20;56.40
72905;DHT22;61048;52.162;4.516;2023-04-09T09:16:39;16.20;56.30
72905;DHT22;61048;52.162;4.516;2023-04-09T09:19:08;16.20;56.30
72905;DHT22;61048;52.162;4.516;2023-04-09T09:21:35;16.20;56.40
72905;DHT22;61048;52.162;4.516;2023-04-09T09:24:15;16.20;56.30
72905;DHT22;61048;52.162;4.516;2023-04-09T09:26:43;16.20;56.30
72905;DHT22;61048;52.162;4.516;2023-04-09T09:29:10;16.20;56.20
72905;DHT22;61048;52.162;4.516;2023-04-09T09:31:45;16.20;56.20
72905;DHT22;61048;52.162;4.516;2023-04-09T09:34:14;16.20;56.00
72905;DHT22;61048;52.162;4.516;2023-04-09T09:36:41;16.20;56.10
72905;DHT22;61048;52.162;4.516;2023-04-09T09:39:09;16.20;56.10
72905;DHT22;61048;52.162;4.516;2023-04-09T09:41:37;16.20;56.10
72905;DHT22;61048;52.162;4.516;2023-04-09T09:44:07;16.20;55.90
72905;DHT22;61048;52.162;4.516;2023-04-09T09:46:35;16.20;56.00
72905;DHT22;61048;52.162;4.516;2023-04-09T09:49:03;16.20;56.10
72905;DHT22;61048;52.162;4.516;2023-04-09T09:51:31;16.20;55.90
72905;DHT22;61048;52.162;4.516;2023-04-09T09:53:59;16.20;55.90
72905;DHT22;61048;52.162;4.516;2023-04-09T09:56:30;16.30;55.90
72905;DHT22;61048;52.162;4.516;2023-04-09T09:59:06;16.30;55.80
72905;DHT22;61048;52.162;4.516;2023-04-09T10:01:36;16.30;55.70
72905;DHT22;61048;52.162;4.516;2023-04-09T10:04:05;16.20;55.70
72905;DHT22;61048;52.162;4.516;2023-04-09T10:06:39;16.20;55.60
72905;DHT22;61048;52.162;4.516;2023-04-09T10:09:09;16.20;55.70
72905;DHT22;61048;52.162;4.516;2023-04-09T10:11:36;16.20;55.70
72905;DHT22;61048;52.162;4.516;2023-04-09T10:14:09;16.30;55.60
72905;DHT22;61048;52.162;4.516;2023-04-09T10:16:36;16.30;55.60
72905;DHT22;61048;52.162;4.516;2023-04-09T10:19:03;16.30;55.60
72905;DHT22;61048;52.162;4.516;2023-04-09T10:21:37;16.30;55.50
72905;DHT22;61048;52.162;4.516;2023-04-09T10:24:06;16.30;55.60
72905;DHT22;61048;52.162;4.516;2023-04-09T10:26:35;16.30;55.60
72905;DHT22;61048;52.162;4.516;2023-04-09T10:29:03;16.40;55.60
72905;DHT22;61048;52.162;4.516;2023-04-09T10:31:46;16.40;55.50
72905;DHT22;61048;52.162;4.516;2023-04-09T10:34:15;16.40;55.50
72905;DHT22;61048;52.162;4.516;2023-04-09T10:36:42;16.40;55.50
72905;DHT22;61048;52.162;4.516;2023-04-09T10:39:13;16.40;55.40
72905;DHT22;61048;52.162;4.516;2023-04-09T10:41:41;16.40;55.40
72905;DHT22;61048;52.162;4.516;2023-04-09T10:44:19;16.40;55.40
72905;DHT22;61048;52.162;4.516;2023-04-09T10:46:47;16.40;55.10
72905;DHT22;61048;52.162;4.516;2023-04-09T10:49:16;16.50;55.10
72905;DHT22;61048;52.162;4.516;2023-04-09T10:51:48;16.50;55.20
72905;DHT22;61048;52.162;4.516;2023-04-09T10:54:38;16.50;55.20
72905;DHT22;61048;52.162;4.516;2023-04-09T10:57:12;16.50;55.20
72905;DHT22;61048;52.162;4.516;2023-04-09T10:59:40;16.50;55.00
72905;DHT22;61048;52.162;4.516;2023-04-09T11:02:25;16.60;55.00
72905;DHT22;61048;52.162;4.516;2023-04-09T11:05:10;16.60;54.70
72905;DHT22;61048;52.162;4.516;2023-04-09T11:07:43;16.60;54.70
72905;DHT22;61048;52.162;4.516;2023-04-09T11:10:10;16.60;54.70
72905;DHT22;61048;52.162;4.516;2023-04-09T11:12:37;16.60;54.50
72905;DHT22;61048;52.162;4.516;2023-04-09T11:15:05;16.60;54.30
72905;DHT22;61048;52.162;4.516;2023-04-09T11:17:42;16.70;54.50
72905;DHT22;61048;52.162;4.516;2023-04-09T11:20:09;16.70;54.60
72905;DHT22;61048;52.162;4.516;2023-04-09T11:22:37;16.70;54.50
72905;DHT22;61048;52.162;4.516;2023-04-09T11:25:05;16.80;54.50
72905;DHT22;61048;52.162;4.516;2023-04-09T11:27:36;16.80;54.30
72905;DHT22;61048;52.162;4.516;2023-04-09T11:30:03;16.90;54.20
72905;DHT22;61048;52.162;4.516;2023-04-09T11:32:31;16.90;53.90
72905;DHT22;61048;52.162;4.516;2023-04-09T11:35:00;17.00;54.10
72905;DHT22;61048;52.162;4.516;2023-04-09T11:37:27;17.00;53.60
72905;DHT22;61048;52.162;4.516;2023-04-09T11:39:54;17.00;53.90
72905;DHT22;61048;52.162;4.516;2023-04-09T11:42:22;17.00;53.70
72905;DHT22;61048;52.162;4.516;2023-04-09T11:44:50;17.00;53.70
72905;DHT22;61048;52.162;4.516;2023-04-09T11:47:18;17.10;53.60
72905;DHT22;61048;52.162;4.516;2023-04-09T11:49:46;17.10;53.70
72905;DHT22;61048;52.162;4.516;2023-04-09T11:52:14;17.10;53.60
72905;DHT22;61048;52.162;4.516;2023-04-09T11:54:42;17.10;53.70
72905;DHT22;61048;52.162;4.516;2023-04-09T11:57:13;17.10;53.50
72905;DHT22;61048;52.162;4.516;2023-04-09T11:59:40;17.10;53.70
72905;DHT22;61048;52.162;4.516;2023-04-09T12:02:07;17.10;53.40
72905;DHT22;61048;52.162;4.516;2023-04-09T12:04:34;17.20;53.20
72905;DHT22;61048;52.162;4.516;2023-04-09T12:07:01;17.20;53.50
72905;DHT22;61048;52.162;4.516;2023-04-09T12:09:29;17.20;53.20
72905;DHT22;61048;52.162;4.516;2023-04-09T12:11:58;17.20;53.60
72905;DHT22;61048;52.162;4.516;2023-04-09T12:14:27;17.20;53.50
72905;DHT22;61048;52.162;4.516;2023-04-09T12:16:53;17.30;53.70
72905;DHT22;61048;52.162;4.516;2023-04-09T12:19:24;17.30;53.60
72905;DHT22;61048;52.162;4.516;2023-04-09T12:21:53;17.40;53.60
72905;DHT22;61048;52.162;4.516;2023-04-09T12:24:23;17.40;53.40
72905;DHT22;61048;52.162;4.516;2023-04-09T12:26:52;17.40;53.70
72905;DHT22;61048;52.162;4.516;2023-04-09T12:29:20;17.50;53.60
72905;DHT22;61048;52.162;4.516;2023-04-09T12:31:47;17.50;53.40
72905;DHT22;61048;52.162;4.516;2023-04-09T12:34:14;17.50;53.40
72905;DHT22;61048;52.162;4.516;2023-04-09T12:36:41;17.50;53.60
72905;DHT22;61048;52.162;4.516;2023-04-09T12:39:07;17.60;53.50
72905;DHT22;61048;52.162;4.516;2023-04-09T12:41:35;17.60;53.50
72905;DHT22;61048;52.162;4.516;2023-04-09T12:44:03;17.60;53.50
72905;DHT22;61048;52.162;4.516;2023-04-09T12:46:31;17.60;53.10
72905;DHT22;61048;52.162;4.516;2023-04-09T12:48:58;17.70;53.10
72905;DHT22;61048;52.162;4.516;2023-04-09T12:51:25;17.70;53.20
72905;DHT22;61048;52.162;4.516;2023-04-09T12:53:53;17.70;53.40
72905;DHT22;61048;52.162;4.516;2023-04-09T12:56:19;17.70;53.20
72905;DHT22;61048;52.162;4.516;2023-04-09T12:58:46;17.70;53.30
72905;DHT22;61048;52.162;4.516;2023-04-09T13:01:14;17.80;53.30
72905;DHT22;61048;52.162;4.516;2023-04-09T13:03:42;17.80;53.30
72905;DHT22;61048;52.162;4.516;2023-04-09T13:06:09;17.80;53.20
72905;DHT22;61048;52.162;4.516;2023-04-09T13:08:36;17.90;53.20
72905;DHT22;61048;52.162;4.516;2023-04-09T13:11:03;17.90;53.20
72905;DHT22;61048;52.162;4.516;2023-04-09T13:13:30;17.90;53.20
72905;DHT22;61048;52.162;4.516;2023-04-09T13:15:58;17.90;53.00
72905;DHT22;61048;52.162;4.516;2023-04-09T13:18:26;17.90;52.70
72905;DHT22;61048;52.162;4.516;2023-04-09T13:20:53;17.90;52.50
72905;DHT22;61048;52.162;4.516;2023-04-09T13:23:20;17.90;52.80
72905;DHT22;61048;52.162;4.516;2023-04-09T13:25:47;17.90;52.80
72905;DHT22;61048;52.162;4.516;2023-04-09T13:28:13;18.00;53.00
72905;DHT22;61048;52.162;4.516;2023-04-09T13:30:40;18.00;52.80
72905;DHT22;61048;52.162;4.516;2023-04-09T13:33:07;18.00;52.80
72905;DHT22;61048;52.162;4.516;2023-04-09T13:35:35;18.00;52.90
72905;DHT22;61048;52.162;4.516;2023-04-09T13:38:02;18.00;52.60
72905;DHT22;61048;52.162;4.516;2023-04-09T13:40:29;18.00;52.80
72905;DHT22;61048;52.162;4.516;2023-04-09T13:42:56;18.00;52.60
72905;DHT22;61048;52.162;4.516;2023-04-09T13:45:23;18.00;52.30
72905;DHT22;61048;52.162;4.516;2023-04-09T13:47:50;18.00;52.60
72905;DHT22;61048;52.162;4.516;2023-04-09T13:50:16;18.00;53.00
72905;DHT22;61048;52.162;4.516;2023-04-09T13:52:45;18.00;53.90
72905;DHT22;61048;52.162;4.516;2023-04-09T13:55:12;18.10;53.40
72905;DHT22;61048;52.162;4.516;2023-04-09T13:57:38;18.10;52.80
72905;DHT22;61048;52.162;4.516;2023-04-09T14:00:07;18.10;53.00
72905;DHT22;61048;52.162;4.516;2023-04-09T14:02:34;18.10;53.00
72905;DHT22;61048;52.162;4.516;2023-04-09T14:05:00;18.10;52.40
72905;DHT22;61048;52.162;4.516;2023-04-09T14:07:28;18.10;52.70
72905;DHT22;61048;52.162;4.516;2023-04-09T14:09:56;18.10;53.10
72905;DHT22;61048;52.162;4.516;2023-04-09T14:12:23;18.10;53.00
72905;DHT22;61048;52.162;4.516;2023-04-09T14:14:50;18.10;53.00
72905;DHT22;61048;52.162;4.516;2023-04-09T14:17:17;18.10;52.90
72905;DHT22;61048;52.162;4.516;2023-04-09T14:19:44;18.20;52.40
72905;DHT22;61048;52.162;4.516;2023-04-09T14:22:11;18.20;52.20
72905;DHT22;61048;52.162;4.516;2023-04-09T14:24:38;18.20;52.10
72905;DHT22;61048;52.162;4.516;2023-04-09T14:27:06;18.30;52.10
72905;DHT22;61048;52.162;4.516;2023-04-09T14:29:34;18.30;51.90
72905;DHT22;61048;52.162;4.516;2023-04-09T14:32:01;18.30;51.90
72905;DHT22;61048;52.162;4.516;2023-04-09T14:34:28;18.30;51.80
72905;DHT22;61048;52.162;4.516;2023-04-09T14:36:55;18.40;51.90
72905;DHT22;61048;52.162;4.516;2023-04-09T14:39:22;18.40;51.70
72905;DHT22;61048;52.162;4.516;2023-04-09T14:41:49;18.40;51.60
72905;DHT22;61048;52.162;4.516;2023-04-09T14:44:17;18.40;51.50
72905;DHT22;61048;52.162;4.516;2023-04-09T14:46:44;18.30;51.60
72905;DHT22;61048;52.162;4.516;2023-04-09T14:49:13;18.30;51.70
72905;DHT22;61048;52.162;4.516;2023-04-09T14:51:41;18.30;51.70
72905;DHT22;61048;52.162;4.516;2023-04-09T14:54:08;18.30;51.80
72905;DHT22;61048;52.162;4.516;2023-04-09T14:56:35;18.30;51.40
72905;DHT22;61048;52.162;4.516;2023-04-09T14:59:02;18.30;51.60
72905;DHT22;61048;52.162;4.516;2023-04-09T15:01:30;18.20;51.60
72905;DHT22;61048;52.162;4.516;2023-04-09T15:03:57;18.30;51.70
72905;DHT22;61048;52.162;4.516;2023-04-09T15:06:24;18.30;51.50
72905;DHT22;61048;52.162;4.516;2023-04-09T15:08:52;18.30;51.80
72905;DHT22;61048;52.162;4.516;2023-04-09T15:11:19;18.30;51.30
72905;DHT22;61048;52.162;4.516;2023-04-09T15:13:47;18.40;51.50
72905;DHT22;61048;52.162;4.516;2023-04-09T15:16:20;18.40;51.20
72905;DHT22;61048;52.162;4.516;2023-04-09T15:18:48;18.50;51.10
72905;DHT22;61048;52.162;4.516;2023-04-09T15:21:16;18.50;51.10
72905;DHT22;61048;52.162;4.516;2023-04-09T15:23:43;18.50;51.10
72905;DHT22;61048;52.162;4.516;2023-04-09T15:26:10;18.50;50.80
72905;DHT22;61048;52.162;4.516;2023-04-09T15:28:37;18.40;51.00
72905;DHT22;61048;52.162;4.516;2023-04-09T15:31:04;18.50;50.90
72905;DHT22;61048;52.162;4.516;2023-04-09T15:33:31;18.50;51.00
72905;DHT22;61048;52.162;4.516;2023-04-09T15:35:59;18.60;50.60
72905;DHT22;61048;52.162;4.516;2023-04-09T15:38:26;18.60;50.60
72905;DHT22;61048;52.162;4.516;2023-04-09T15:40:54;18.60;50.60